Anaconda, MT

8:26 PM MDT on March 27, 2015 (GMT -0600)
Helena Regional | | Change Station
CLOSE
Current Station
Airport
Location: Helena,
Elevation: 3865 ft
Nearby Weather Stations
Active Advisory: Wind Advisory Active Notice: Record Report

Elev 3865 ft 46.60 °N, 111.99 °W | Updated 33 minutes ago

Partly Cloudy
Partly Cloudy
67 °F
Feels Like 67 °F
N
8
Wind Variable Wind from West

Today
High -- | Low -- °F
--% Chance of Precip.
Yesterday
High -- | Low -- °F
Precip. -- in
7:21 AM 7:53 PM
First Quarter, 58% visible
Pressure 29.98 in
Visibility 10.0 miles
Clouds Clear
Dew Point 33 °F
Humidity 28%
Rainfall 0.00 in
Snow Depth Not available.
UV 0 out of 12
Pollen 6.20 out of 12
Air Quality Not available.
Flu Activity Not available.
METAR KHLN 280153Z 27007KT 10SM CLR 19/01 A2997 RMK AO2 SLP150 T01940006

More Conditions Fewer Conditions

Pressure 29.98 in
Visibility 10.0 miles
Clouds Clear
Dew Point 33 °F
Humidity 28%
Rainfall 0.00 in
Snow Depth Not available.
UV 0 out of 12
Pollen 6.20 out of 12
Air Quality Not available.
Flu Activity Not available.
METAR KHLN 280153Z 27007KT 10SM CLR 19/01 A2997 RMK AO2 SLP150 T01940006

More Conditions Fewer Conditions

10-Day Weather Forecast

Almanac

Astronomy

Mar. 27, 2015 Rise Set
Actual Time
Civil Twilight
Nautical Twilight
Astronomical Twilight
Moon
Length of Visible Light
Length of Day
Tomorrow will be .
, % of the Moon is Illuminated

Today's Extremes

State Highs State Lows

Community

WunderPhotos

Upload Photos

1,808,915 photos uploaded!

WunderBlogs® & News

Nearby

Air Quality

  Air Quality AQ Index Pollutant
Not available.

Snow Depth

Station Depth Elevation

Earthquake Activity

City Distance Mag. Time & Date
Minimum magnitude displayed is 2.5.

Coastal Water Temperatures

Place Temperature

Stations

Nearby Weather Stations

Station Location Temp. Windchill Dew Point Humidity Wind Precip. Elev Updated Type
                   
Wind Advisory
Statement as of 9:46 AM MDT on March 27, 2015

... Wind Advisory in effect from 9 am to 9 PM MDT Saturday...

The National Weather Service in Missoula has issued a Wind
Advisory... which is in effect from 9 am to 9 PM MDT Saturday.

* Impacts/timing: a vigorous cold front will cause strong, gusty
winds to occur throughout the day Saturday. Winds will chiefly
impact high profile vehicles traveling along the Interstate 90
corridor, particularly from Drummond to Butte. Those with
outdoor plans could also be impacted.

* Winds: sustained west winds of 20 to 30 mph with gusts
to 40 mph. Brief, intermittent gusts to 50 mph possible.

* Locations impacted include... Butte... Georgetown Lake... Highway
12 Garrison to Elliston... Homestake pass... MacDonald Pass...
Highway 200 Bonner to Greenough... Highway 83 Seeley Lake to
Condon... I-90 East Missoula to Bearmouth

Precautionary/preparedness actions...

A Wind Advisory means that winds of 35 mph are expected. Winds
this strong can make driving difficult... especially for high
profile vehicles. Use extra caution.